»·PEaware :: N321TB KLAS-L35

N321TB :: KLAS-L35

FLIGHT INFORMATION

Flight Status: Arrived
Operator: Privately registered:
United States
More flights under this callsign
Pilot: Martin K. (31672)
Aircraft: CESSNA 172 SKYHAWK
(C172)
More flights by this aircraft type
Origin: KLAS McCarran Intl
United States
Destination: L35 Big Bear City
United States
More flights between these airports :: More routes between these airports
Route: +
File this flight plan on PilotEdge
Remarks:
Altitude:
(Current/Filed)
10,500ft
Speed:
(Current/Filed)
0kts
Departed: 03-Oct-20 10:34 AM
Arrived: 03-Oct-20 11:55 AM
Distance/Time
Traveled:
137nm/1:21
Distance/Time
To Go:
Arrived

Flight Plot

Page will automatically refresh every two minutes.

Flight plan parsing failed; only flown route is shown


Map Options




Map Legend


Flown Route
Filed Route
Departure Airport
Arrival Airport
Navaid (VOR, NDB)
Fix

Horizontal Profiles

Position Reports

Time Latitude Longitude Heading Altitude Ground
Speed
03-Oct-20 10:23 36.098626 -115.161139 115 2182ft 0kts
03-Oct-20 10:24 36.098626 -115.161139 115 2182ft 0kts
03-Oct-20 10:25 36.098626 -115.161139 115 2182ft 0kts
03-Oct-20 10:26 36.098626 -115.161139 115 2182ft 0kts
03-Oct-20 10:27 36.098626 -115.161139 115 2182ft 0kts
03-Oct-20 10:28 36.098626 -115.161139 115 2182ft 0kts
03-Oct-20 10:29 36.097720 -115.160254 107 2182ft 7kts
03-Oct-20 10:30 36.099282 -115.158301 171 2182ft 4kts
03-Oct-20 10:31 36.099778 -115.157537 95 2182ft 0kts
03-Oct-20 10:32 36.099778 -115.157537 95 2182ft 0kts
03-Oct-20 10:33 36.097472 -115.157696 204 2182ft 49kts
03-Oct-20 10:34 36.076324 -115.168508 183 2752ft 88kts
03-Oct-20 10:35 36.049873 -115.172738 184 3463ft 102kts
03-Oct-20 10:36 36.020688 -115.177986 184 4149ft 111kts
03-Oct-20 10:37 35.989160 -115.184207 185 4655ft 114kts
03-Oct-20 10:38 35.958151 -115.190542 185 5124ft 113kts
03-Oct-20 10:39 35.929248 -115.197278 186 5789ft 101kts
03-Oct-20 10:40 35.901966 -115.204303 186 6438ft 102kts
03-Oct-20 10:41 35.873279 -115.212274 190 6946ft 108kts
03-Oct-20 10:42 35.845497 -115.227328 204 7448ft 109kts
03-Oct-20 10:43 35.820283 -115.248304 210 7948ft 109kts
03-Oct-20 10:44 35.797008 -115.271484 213 8446ft 106kts
03-Oct-20 10:45 35.775239 -115.295194 214 8942ft 102kts
03-Oct-20 10:46 35.754662 -115.318595 215 9426ft 99kts
03-Oct-20 10:47 35.733567 -115.343424 217 9735ft 108kts
03-Oct-20 10:48 35.711894 -115.369769 218 10041ft 111kts
03-Oct-20 10:49 35.689851 -115.396681 217 10347ft 111kts
03-Oct-20 10:50 35.667781 -115.423507 218 10567ft 115kts
03-Oct-20 10:51 35.644545 -115.452339 219 10565ft 120kts
03-Oct-20 10:52 35.620796 -115.481693 219 10565ft 121kts
03-Oct-20 10:53 35.596951 -115.510879 219 10564ft 121kts
03-Oct-20 10:54 35.572933 -115.540097 218 10564ft 121kts
03-Oct-20 10:55 35.548947 -115.569199 218 10564ft 121kts
03-Oct-20 10:56 35.524970 -115.597859 218 10564ft 120kts
03-Oct-20 10:57 35.501028 -115.626500 218 10563ft 120kts
03-Oct-20 10:58 35.477138 -115.655183 217 10562ft 120kts
03-Oct-20 10:59 35.453348 -115.683571 217 10563ft 119kts
03-Oct-20 11:00 35.429444 -115.712235 218 10557ft 120kts
03-Oct-20 11:01 35.405533 -115.740857 217 10550ft 120kts
03-Oct-20 11:02 35.381490 -115.769464 217 10544ft 121kts
03-Oct-20 11:03 35.357497 -115.798162 217 10537ft 120kts
03-Oct-20 11:04 35.333496 -115.826879 217 10527ft 120kts
03-Oct-20 11:05 35.309464 -115.855685 217 10520ft 121kts
03-Oct-20 11:06 35.285326 -115.884634 217 10514ft 121kts
03-Oct-20 11:07 35.261090 -115.913689 217 10510ft 122kts
03-Oct-20 11:08 35.236847 -115.942727 217 10509ft 122kts
03-Oct-20 11:09 35.212584 -115.971753 217 10509ft 122kts
03-Oct-20 11:10 35.188422 -116.000644 217 10509ft 122kts
03-Oct-20 11:11 35.164115 -116.029683 217 10509ft 122kts
03-Oct-20 11:12 35.139734 -116.058259 217 10509ft 121kts
03-Oct-20 11:13 35.115273 -116.086933 217 10508ft 121kts
03-Oct-20 11:14 35.090928 -116.115580 217 10508ft 122kts
03-Oct-20 11:15 35.066535 -116.144434 217 10508ft 122kts
03-Oct-20 11:16 35.042281 -116.173200 217 10508ft 122kts
03-Oct-20 11:17 35.017906 -116.202123 217 10511ft 122kts
03-Oct-20 11:18 34.993625 -116.231257 219 10512ft 123kts
03-Oct-20 11:19 34.969698 -116.261668 219 10511ft 125kts
03-Oct-20 11:20 34.945654 -116.292531 219 10507ft 125kts
03-Oct-20 11:21 34.922195 -116.321548 219 10500ft 114kts
03-Oct-20 11:22 34.900046 -116.348668 219 10494ft 113kts
03-Oct-20 11:23 34.877946 -116.376309 219 10491ft 114kts
03-Oct-20 11:24 34.855869 -116.404436 219 10485ft 115kts
03-Oct-20 11:25 34.833774 -116.432774 219 10484ft 115kts
03-Oct-20 11:26 34.811822 -116.461042 219 10484ft 115kts
03-Oct-20 11:27 34.790625 -116.490391 222 10484ft 115kts
03-Oct-20 11:28 34.769841 -116.520094 222 10484ft 115kts
03-Oct-20 11:29 34.749021 -116.549973 222 10484ft 115kts
03-Oct-20 11:30 34.726778 -116.577461 206 10485ft 111kts
03-Oct-20 11:31 34.701476 -116.599798 213 10485ft 113kts
03-Oct-20 11:32 34.678008 -116.625553 217 10485ft 114kts
03-Oct-20 11:33 34.655554 -116.653164 226 10485ft 116kts
03-Oct-20 11:34 34.642048 -116.689862 241 10509ft 119kts
03-Oct-20 11:35 34.630648 -116.727450 241 10539ft 118kts
03-Oct-20 11:36 34.619298 -116.764779 241 10574ft 117kts
03-Oct-20 11:37 34.607263 -116.802079 240 10616ft 121kts
03-Oct-20 11:38 34.594238 -116.840658 241 10585ft 132kts
03-Oct-20 11:39 34.578603 -116.883462 225 10352ft 134kts
03-Oct-20 11:40 34.552181 -116.912858 217 10349ft 127kts
03-Oct-20 11:41 34.526559 -116.941584 217 10347ft 124kts
03-Oct-20 11:42 34.500998 -116.969700 216 10345ft 123kts
03-Oct-20 11:43 34.475540 -116.997199 216 10344ft 122kts
03-Oct-20 11:44 34.447186 -117.016514 190 10346ft 117kts
03-Oct-20 11:45 34.415493 -117.026100 190 10345ft 117kts
03-Oct-20 11:46 34.383554 -117.032555 178 10345ft 116kts
03-Oct-20 11:47 34.351552 -117.030453 159 10219ft 115kts
03-Oct-20 11:48 34.323929 -117.012196 146 9612ft 114kts
03-Oct-20 11:49 34.299326 -116.989036 138 8939ft 113kts
03-Oct-20 11:50 34.278054 -116.962844 123 8455ft 107kts
03-Oct-20 11:51 34.263730 -116.932663 99 8136ft 106kts
03-Oct-20 11:52 34.263318 -116.901573 85 7719ft 91kts
03-Oct-20 11:53 34.263754 -116.871213 87 6922ft 85kts
03-Oct-20 11:54 34.263745 -116.853685 124 6754ft 10kts
03-Oct-20 11:55 34.263039 -116.853425 358 6754ft 0kts
03-Oct-20 11:56 34.263039 -116.853425 358 6754ft 0kts

Navigation Log

Ident Type
Flight plan parsing failed, navigation log unavailable